Stations météo

Publicité
Toulon Arsenal, France (7660): Température de l'air & dewpoint: 11.06.2019 16:00:00 - 17.06.2019 16:00:00 (CEST)Toulon Arsenal, France (7660): Vitesse du vent & gusts: 11.06.2019 16:00:00 - 17.06.2019 16:00:00 (CEST)Toulon Arsenal, France (7660): Direction du vent: 11.06.2019 16:00:00 - 17.06.2019 16:00:00 (CEST)Toulon Arsenal, France (7660): Quantités de précipitations: 11.06.2019 16:00:00 - 17.06.2019 16:00:00 (CEST)
Date & Time tt [°C] td [°C] ff [km/h] ff [knt] fx [km/h] fx [knt] dd rr [mm]
17.06.2019 16:00:00 24,7 18,2 9 5 16 9 SSE 0,0
17.06.2019 15:00:00 24,2 17,9 9 5 22 12 SE 0,0
17.06.2019 14:00:00 23,5 17,7 11 6 22 12 S -
17.06.2019 13:00:00 25,4 17,6 8 4 15 8 SE 0,0
17.06.2019 12:00:00 23,9 17,9 8 4 18 10 ESE 0,0
17.06.2019 11:00:00 23,4 17,6 9 5 22 12 SE 0,0
17.06.2019 10:00:00 22,6 17,5 8 4 13 7 ESE 0,0
17.06.2019 09:00:00 21,8 15,6 4 2 11 6 SE 0,0
17.06.2019 08:00:00 20,0 15,0 4 2 8 4 S -
17.06.2019 07:00:00 17,2 15,0 2 1 9 5 N 0,0
17.06.2019 06:00:00 16,6 14,1 0 0 5 3 N 0,0
17.06.2019 05:00:00 16,7 13,6 4 2 8 4 N 0,0
17.06.2019 04:00:00 16,6 14,1 2 1 5 3 NE 0,0
17.06.2019 03:00:00 17,0 14,1 0 0 4 2 N 0,0
17.06.2019 02:00:00 17,5 14,2 0 0 5 3 N -
17.06.2019 01:00:00 17,9 14,8 2 1 5 3 NNE 0,0
17.06.2019 00:00:00 18,7 15,6 4 2 5 3 N 0,0
16.06.2019 23:00:00 19,8 16,8 0 0 9 5 N 0,0
16.06.2019 22:00:00 21,1 17,5 5 3 18 10 ESE 0,0
16.06.2019 21:00:00 21,7 16,6 9 5 18 10 E 0,0
16.06.2019 20:00:00 22,8 17,0 8 4 18 10 E -
16.06.2019 19:00:00 23,8 17,3 8 4 15 8 SE 0,0
16.06.2019 18:00:00 23,9 16,9 8 4 16 9 SE 0,0
16.06.2019 17:00:00 23,5 16,3 11 6 21 11 ESE 0,0
16.06.2019 16:00:00 23,3 13,7 15 8 22 12 ESE 0,0
16.06.2019 15:00:00 23,6 13,7 15 8 26 14 ESE 0,0
16.06.2019 14:00:00 24,3 14,1 9 5 16 9 ESE -
16.06.2019 13:00:00 23,5 13,1 11 6 22 12 ESE 0,0
16.06.2019 12:00:00 24,3 12,9 11 6 22 12 ESE 0,0
16.06.2019 11:00:00 24,2 12,5 8 4 16 9 SE 0,0
16.06.2019 10:00:00 22,8 12,7 4 2 8 4 ESE 0,0
16.06.2019 09:00:00 20,7 12,1 4 2 11 6 S 0,0
16.06.2019 08:00:00 20,6 12,3 4 2 16 9 N -
16.06.2019 07:00:00 17,9 11,9 8 4 21 11 W 0,0
16.06.2019 06:00:00 16,4 12,7 4 2 15 8 NW 0,0
16.06.2019 05:00:00 17,5 13,8 4 2 13 7 WNW 0,0
16.06.2019 04:00:00 17,7 14,2 4 2 11 6 NW 0,0
16.06.2019 03:00:00 18,9 14,6 4 2 13 7 W 0,0
16.06.2019 02:00:00 19,3 15,8 4 2 18 10 WNW -
16.06.2019 01:00:00 20,2 16,6 9 5 16 9 W 0,0
16.06.2019 00:00:00 20,2 17,0 5 3 13 7 W 0,0
15.06.2019 23:00:00 20,3 17,1 8 4 22 12 W 0,0
15.06.2019 22:00:00 20,4 17,0 9 5 28 15 W 0,0
15.06.2019 21:00:00 20,8 17,0 15 8 29 16 W 0,0
15.06.2019 20:00:00 22,1 17,5 15 8 31 17 WSW -
15.06.2019 19:00:00 23,2 16,3 15 8 29 16 WSW 0,0
15.06.2019 18:00:00 23,5 16,3 16 9 29 16 WSW 0,0
15.06.2019 17:00:00 24,3 16,0 15 8 24 13 W 0,0
15.06.2019 16:00:00 24,8 16,2 9 5 16 9 SSE 0,0
15.06.2019 15:00:00 25,0 15,3 8 4 21 11 WSW 0,0
15.06.2019 14:00:00 23,8 17,3 8 4 18 10 S -
15.06.2019 13:00:00 22,8 17,0 9 5 21 11 SSE 0,0
15.06.2019 12:00:00 22,0 16,9 8 4 15 8 SE 0,0
15.06.2019 11:00:00 21,8 17,0 5 3 11 6 SE 0,0
15.06.2019 10:00:00 20,3 16,5 5 3 13 7 ESE 0,0
15.06.2019 09:00:00 19,4 17,0 8 4 13 7 SSE 0,0
15.06.2019 08:00:00 18,8 17,1 5 3 13 7 ESE -
15.06.2019 07:00:00 18,5 17,2 4 2 8 4 ESE 0,0
15.06.2019 06:00:00 18,0 16,8 4 2 9 5 E 0,0
15.06.2019 05:00:00 17,5 16,5 2 1 4 2 NNW 0,0
15.06.2019 04:00:00 18,1 16,6 0 0 8 4 N 0,0
15.06.2019 03:00:00 18,8 17,6 4 2 11 6 NW 0,0
15.06.2019 02:00:00 19,0 18,3 4 2 9 5 SSW -
15.06.2019 01:00:00 19,1 18,4 5 3 18 10 ESE 0,0
15.06.2019 00:00:00 19,4 18,6 11 6 34 18 SE 0,0
14.06.2019 23:00:00 19,6 18,8 16 9 34 18 ESE 0,0
14.06.2019 22:00:00 20,3 19,0 18 10 35 19 ESE 0,0
14.06.2019 21:00:00 20,3 19,0 16 9 39 21 ESE 0,0
14.06.2019 20:00:00 21,0 19,1 22 12 44 24 ESE -
14.06.2019 19:00:00 23,0 17,2 26 14 57 31 ESE 0,0
14.06.2019 18:00:00 24,7 15,3 29 16 61 33 E 0,0
14.06.2019 17:00:00 27,4 12,2 22 12 68 37 E 0,0
14.06.2019 16:00:00 28,8 10,0 34 18 70 38 E 0,0
14.06.2019 15:00:00 29,7 8,1 34 18 67 36 E 0,0
14.06.2019 14:00:00 30,5 7,0 31 17 65 35 E -
14.06.2019 13:00:00 30,6 7,1 28 15 65 35 E 0,0
14.06.2019 12:00:00 30,3 8,7 31 17 67 36 E 0,0
14.06.2019 11:00:00 29,8 8,8 31 17 67 36 E 0,0
14.06.2019 10:00:00 28,5 9,7 26 14 65 35 E 0,0
14.06.2019 09:00:00 26,1 9,4 5 3 46 25 E 0,0
14.06.2019 08:00:00 26,9 8,3 21 11 48 26 E -
14.06.2019 07:00:00 25,4 9,6 21 11 44 24 E 0,0
14.06.2019 06:00:00 25,3 8,7 22 12 61 33 E 0,0
14.06.2019 05:00:00 25,3 6,5 22 12 42 23 E 0,0
14.06.2019 04:00:00 25,0 3,6 16 9 34 18 E 0,0
14.06.2019 03:00:00 24,1 3,9 11 6 34 18 E 0,0
14.06.2019 02:00:00 24,1 2,3 11 6 29 16 E -
14.06.2019 01:00:00 24,3 -2,3 11 6 39 21 E 0,0
14.06.2019 00:00:00 23,8 -5,3 9 5 37 20 E 0,0
13.06.2019 23:00:00 23,4 -3,1 11 6 29 16 E 0,0
13.06.2019 22:00:00 21,6 10,1 11 6 26 14 ESE 0,0
13.06.2019 21:00:00 21,0 11,9 15 8 26 14 ESE 0,0
13.06.2019 20:00:00 21,9 7,7 11 6 24 13 E -
13.06.2019 19:00:00 21,0 13,7 8 4 22 12 ESE 0,0
13.06.2019 18:00:00 20,8 13,7 11 6 24 13 ESE 0,0
13.06.2019 17:00:00 21,6 12,2 15 8 26 14 SSE 0,0
13.06.2019 16:00:00 22,7 12,0 11 6 22 12 SE 0,0
13.06.2019 15:00:00 22,4 12,6 8 4 21 11 ESE 0,0
13.06.2019 14:00:00 22,9 11,6 9 5 16 9 SSE -
13.06.2019 13:00:00 22,4 12,1 9 5 16 9 ESE 0,0
13.06.2019 12:00:00 21,5 11,5 8 4 13 7 ESE 0,0
13.06.2019 11:00:00 21,0 11,6 8 4 15 8 SSE 0,0
13.06.2019 10:00:00 20,4 8,4 5 3 11 6 SE 0,0
13.06.2019 09:00:00 18,3 9,1 4 2 8 4 ESE 0,0
13.06.2019 08:00:00 17,2 8,3 0 0 4 2 N -
13.06.2019 07:00:00 11,4 7,9 0 0 8 4 N 0,0
13.06.2019 06:00:00 11,4 7,3 0 0 8 4 N 0,0
13.06.2019 05:00:00 13,4 7,2 4 2 16 9 NW 0,0
13.06.2019 04:00:00 14,3 8,3 8 4 16 9 NW 0,0
13.06.2019 03:00:00 14,7 9,1 8 4 24 13 W 0,0
13.06.2019 02:00:00 14,8 9,4 11 6 22 12 WNW -
13.06.2019 01:00:00 15,2 9,1 13 7 28 15 W 0,0
13.06.2019 00:00:00 15,9 9,1 13 7 22 12 WNW 0,0
12.06.2019 23:00:00 16,5 9,7 13 7 28 15 WNW 0,0
12.06.2019 22:00:00 17,1 9,5 11 6 29 16 WNW 0,0
12.06.2019 21:00:00 17,7 9,8 16 9 37 20 W 0,0
12.06.2019 20:00:00 18,7 9,7 18 10 37 20 W -
12.06.2019 19:00:00 19,6 10,0 16 9 39 21 W 0,0
12.06.2019 18:00:00 20,1 9,3 21 11 46 25 W 0,0
12.06.2019 17:00:00 20,4 9,9 22 12 46 25 W 0,0
12.06.2019 16:00:00 20,3 10,4 26 14 50 27 W 0,0
12.06.2019 15:00:00 20,8 10,0 28 15 55 30 W 0,0
12.06.2019 14:00:00 20,6 10,1 29 16 55 30 W -
12.06.2019 13:00:00 20,7 10,5 24 13 48 26 W 0,0
12.06.2019 12:00:00 21,0 10,5 22 12 42 23 W 0,0
12.06.2019 11:00:00 20,1 10,2 24 13 41 22 WSW 0,0
12.06.2019 10:00:00 21,1 6,2 15 8 29 16 W 0,0
12.06.2019 09:00:00 19,2 7,6 13 7 28 15 W 0,0
12.06.2019 08:00:00 16,7 9,9 13 7 22 12 W -
12.06.2019 07:00:00 14,5 9,9 9 5 21 11 W 0,0
12.06.2019 06:00:00 14,4 9,6 8 4 18 10 WNW 0,0
12.06.2019 05:00:00 15,1 10,3 11 6 24 13 W 0,0
12.06.2019 04:00:00 15,8 10,8 11 6 29 16 W 0,0
12.06.2019 03:00:00 16,1 11,5 16 9 37 20 W 0,0
12.06.2019 02:00:00 16,4 10,7 8 4 31 17 W -
12.06.2019 01:00:00 16,6 11,5 21 11 42 23 W 0,0
12.06.2019 00:00:00 17,4 12,1 16 9 37 20 W 0,0
11.06.2019 23:00:00 18,4 11,5 13 7 29 16 W 0,0
11.06.2019 22:00:00 19,3 10,6 11 6 22 12 W 0,0
11.06.2019 21:00:00 19,8 9,7 9 5 24 13 W 0,0
11.06.2019 20:00:00 19,1 10,6 16 9 34 18 W -
11.06.2019 19:00:00 20,0 10,4 16 9 37 20 W 0,0
11.06.2019 18:00:00 21,2 11,5 16 9 34 18 WSW 0,0
11.06.2019 17:00:00 22,2 11,9 18 10 31 17 WSW 0,0
11.06.2019 16:00:00 23,2 11,9 16 9 37 20 W 0,0

tt = Température de l'air
td = dewpoint
ff = Vitesse du vent
fx = gusts
dd = Direction du vent
rr = Quantités de précipitations

stations d'obs. à proximité